createdAt,value
2019-03-22T00:01:46.141Z,93.80
2019-03-22T00:04:14.688Z,93.80
2019-03-22T00:06:44.059Z,93.70
2019-03-22T00:09:12.428Z,93.80
2019-03-22T00:11:40.603Z,93.80
2019-03-22T00:14:08.987Z,93.90
2019-03-22T00:16:37.266Z,93.90
2019-03-22T00:19:05.854Z,93.90
2019-03-22T00:21:34.224Z,93.90
2019-03-22T00:24:02.491Z,93.90
2019-03-22T00:26:32.546Z,93.90
2019-03-22T00:29:01.173Z,93.80
2019-03-22T00:31:29.539Z,93.80
2019-03-22T00:33:58.139Z,93.80
2019-03-22T00:36:26.446Z,93.80
2019-03-22T00:38:56.077Z,93.80
2019-03-22T00:41:24.448Z,93.80
2019-03-22T00:43:52.980Z,93.70
2019-03-22T00:46:21.528Z,93.80
2019-03-22T00:48:50.067Z,93.80
2019-03-22T00:51:18.529Z,93.80
2019-03-22T00:53:46.890Z,93.70
2019-03-22T00:56:15.237Z,93.60
2019-03-22T00:58:43.760Z,93.60
2019-03-22T01:01:12.092Z,93.70
2019-03-22T01:03:40.483Z,93.60
2019-03-22T01:06:08.723Z,93.60
2019-03-22T01:08:37.127Z,93.80
2019-03-22T01:11:05.446Z,93.80
2019-03-22T01:13:33.636Z,93.80
2019-03-22T01:16:02.080Z,93.80
2019-03-22T01:18:30.574Z,93.70
2019-03-22T01:20:58.795Z,93.80
2019-03-22T01:26:27.181Z,93.70
2019-03-22T01:28:55.505Z,93.70
2019-03-22T01:31:23.902Z,93.60
2019-03-22T01:33:52.221Z,93.70
2019-03-22T01:36:20.667Z,93.70
2019-03-22T01:38:49.313Z,93.70
2019-03-22T01:41:17.717Z,93.60
2019-03-22T01:43:45.948Z,93.60
2019-03-22T01:46:14.138Z,93.60
2019-03-22T01:48:42.670Z,93.60
2019-03-22T01:51:11.092Z,93.80
2019-03-22T01:53:39.563Z,93.80
2019-03-22T01:56:07.980Z,93.90
2019-03-22T01:58:36.495Z,93.90
2019-03-22T02:01:04.946Z,93.90
2019-03-22T02:03:33.270Z,93.90
2019-03-22T02:06:01.595Z,94.00
2019-03-22T02:08:29.865Z,93.90
2019-03-22T02:10:57.969Z,93.90
2019-03-22T02:13:26.253Z,93.90
2019-03-22T02:15:54.432Z,93.80
2019-03-22T02:18:22.689Z,93.80
2019-03-22T02:20:50.911Z,93.80
2019-03-22T02:23:19.248Z,93.90
2019-03-22T02:25:47.426Z,94.00
2019-03-22T02:28:15.593Z,94.00
2019-03-22T02:30:43.923Z,94.00
2019-03-22T02:33:12.073Z,94.00
2019-03-22T02:35:40.335Z,94.00
2019-03-22T02:38:08.713Z,94.00
2019-03-22T02:40:37.047Z,94.00
2019-03-22T02:43:05.496Z,94.10
2019-03-22T02:45:33.745Z,94.10
2019-03-22T02:48:02.255Z,94.10
2019-03-22T02:50:30.529Z,94.10
2019-03-22T02:52:58.773Z,94.10
2019-03-22T02:55:27.575Z,94.10
2019-03-22T02:57:55.845Z,94.10
2019-03-22T03:00:24.108Z,94.10
2019-03-22T03:02:53.228Z,94.10
2019-03-22T03:05:22.507Z,94.10
2019-03-22T03:07:51.113Z,94.10
2019-03-22T03:10:19.408Z,94.10
2019-03-22T03:12:47.969Z,94.20
2019-03-22T03:15:16.993Z,94.20
2019-03-22T03:17:46.462Z,94.30
2019-03-22T03:20:14.980Z,94.30
2019-03-22T03:22:43.321Z,94.30
2019-03-22T03:25:12.934Z,94.30
2019-03-22T03:27:41.312Z,94.30
2019-03-22T03:30:11.984Z,94.30
2019-03-22T03:32:40.393Z,94.30
2019-03-22T03:35:09.415Z,94.30
2019-03-22T03:37:37.673Z,94.90
2019-03-22T03:40:07.668Z,94.60
2019-03-22T03:42:35.984Z,94.60
2019-03-22T03:45:06.613Z,94.50
2019-03-22T03:47:34.765Z,94.60
2019-03-22T03:50:03.786Z,94.60
2019-03-22T03:52:31.931Z,94.60
2019-03-22T03:55:00.127Z,94.60
2019-03-22T03:57:28.345Z,94.60
2019-03-22T03:59:56.866Z,94.60
2019-03-22T04:02:25.067Z,94.60
2019-03-22T04:04:53.238Z,94.60
2019-03-22T04:07:21.405Z,94.50
2019-03-22T04:09:49.707Z,94.50
2019-03-22T04:12:17.851Z,94.60
2019-03-22T04:14:46.042Z,94.60
2019-03-22T04:17:14.279Z,94.60
2019-03-22T04:19:42.466Z,94.70
2019-03-22T04:22:10.683Z,94.60
2019-03-22T04:24:38.935Z,94.60
2019-03-22T04:27:07.248Z,94.60
2019-03-22T04:29:35.424Z,94.60
2019-03-22T04:32:03.769Z,94.70
2019-03-22T04:34:31.951Z,94.80
2019-03-22T04:37:00.211Z,94.90
2019-03-22T04:39:28.489Z,94.90
2019-03-22T04:41:56.828Z,95.00
2019-03-22T04:44:25.044Z,94.90
2019-03-22T04:46:54.306Z,94.90
2019-03-22T04:49:23.644Z,94.90
2019-03-22T04:51:52.681Z,95.20
2019-03-22T04:54:21.843Z,94.90
2019-03-22T04:56:51.666Z,94.90
2019-03-22T04:59:20.341Z,94.80
2019-03-22T05:01:51.600Z,94.80
2019-03-22T05:04:20.471Z,94.80
2019-03-22T05:06:51.117Z,94.80
2019-03-22T05:09:23.023Z,94.80
2019-03-22T05:11:52.651Z,94.60
2019-03-22T05:14:22.989Z,94.60
2019-03-22T05:16:53.491Z,94.50
2019-03-22T05:19:24.725Z,94.40
2019-03-22T05:21:53.375Z,94.30
2019-03-22T05:24:24.516Z,94.10
2019-03-22T05:26:55.404Z,94.20
2019-03-22T05:29:30.447Z,94.00
2019-03-22T05:32:07.067Z,94.00
2019-03-22T05:34:35.335Z,94.00
2019-03-22T05:37:04.301Z,94.00
2019-03-22T05:39:32.654Z,94.00
2019-03-22T05:42:01.198Z,94.10
2019-03-22T05:44:29.332Z,94.00
2019-03-22T05:46:57.984Z,93.90
2019-03-22T05:49:26.668Z,93.70
2019-03-22T05:51:55.072Z,93.50
2019-03-22T05:54:23.271Z,93.50
2019-03-22T05:56:51.666Z,93.50
2019-03-22T05:59:19.871Z,93.40
2019-03-22T06:01:48.468Z,93.30
2019-03-22T06:04:16.757Z,93.20
2019-03-22T06:06:45.149Z,93.00
2019-03-22T06:09:13.740Z,92.90
2019-03-22T06:11:41.906Z,92.70
2019-03-22T06:14:10.087Z,92.50
2019-03-22T06:16:38.240Z,92.30
2019-03-22T06:19:06.529Z,91.90
2019-03-22T06:21:34.789Z,91.70
2019-03-22T06:24:03.411Z,91.50
2019-03-22T06:26:31.582Z,91.20
2019-03-22T06:29:00.052Z,91.00
2019-03-22T06:31:28.319Z,90.80
2019-03-22T06:33:56.642Z,90.80
2019-03-22T06:36:24.844Z,90.60
2019-03-22T06:38:53.251Z,90.20
2019-03-22T06:41:21.525Z,90.10
2019-03-22T06:43:49.913Z,89.70
2019-03-22T06:46:19.337Z,89.00
2019-03-22T06:48:47.503Z,88.50
2019-03-22T06:51:15.795Z,87.90
2019-03-22T06:53:44.083Z,87.80
2019-03-22T06:56:12.334Z,87.80
2019-03-22T06:58:40.533Z,87.40
2019-03-22T07:01:08.754Z,87.00
2019-03-22T07:03:37.024Z,86.90
2019-03-22T07:06:06.410Z,86.30
2019-03-22T07:08:34.695Z,85.60
2019-03-22T07:11:03.248Z,84.20
2019-03-22T07:13:31.649Z,83.50
2019-03-22T07:16:00.017Z,81.90
2019-03-22T07:18:28.338Z,81.60
2019-03-22T07:20:56.710Z,79.90
2019-03-22T07:23:26.177Z,80.90
2019-03-22T07:25:57.132Z,81.00
2019-03-22T07:28:26.118Z,81.10
2019-03-22T07:30:54.372Z,80.50
2019-03-22T07:33:22.903Z,80.30
2019-03-22T07:35:51.327Z,78.60
2019-03-22T07:38:20.481Z,78.10
2019-03-22T07:40:48.703Z,78.10
2019-03-22T07:43:16.891Z,78.20
2019-03-22T07:45:45.190Z,78.00
2019-03-22T07:48:13.441Z,78.10
2019-03-22T07:50:41.765Z,78.30
2019-03-22T07:53:09.916Z,78.90
2019-03-22T07:55:38.378Z,78.90
2019-03-22T07:58:06.532Z,78.50
2019-03-22T08:00:35.154Z,78.40
2019-03-22T08:03:03.777Z,77.70
2019-03-22T08:05:32.024Z,78.00
2019-03-22T08:08:00.275Z,78.50
2019-03-22T08:10:28.722Z,78.60
2019-03-22T08:12:56.979Z,79.00
2019-03-22T08:15:30.642Z,79.00
2019-03-22T08:17:59.585Z,79.30
2019-03-22T08:20:28.654Z,79.40
2019-03-22T08:22:56.930Z,79.60
2019-03-22T08:25:26.181Z,80.00
2019-03-22T08:27:54.551Z,80.40
2019-03-22T08:30:22.783Z,80.60
2019-03-22T08:32:51.087Z,80.70
2019-03-22T08:35:19.406Z,80.80
2019-03-22T08:37:52.370Z,81.00
2019-03-22T08:40:18.052Z,80.90
2019-03-22T08:42:46.257Z,81.00
2019-03-22T08:45:14.772Z,81.20
2019-03-22T08:47:43.469Z,81.40
2019-03-22T08:50:12.522Z,82.00
2019-03-22T08:52:40.984Z,82.00
2019-03-22T08:55:09.417Z,81.80
2019-03-22T08:57:37.578Z,81.80
2019-03-22T09:00:07.272Z,81.10
2019-03-22T09:02:35.805Z,80.50
2019-03-22T09:05:05.152Z,79.60
2019-03-22T09:07:33.372Z,79.10
2019-03-22T09:10:08.101Z,78.70
2019-03-22T09:12:36.698Z,78.90
2019-03-22T09:15:06.014Z,78.50
2019-03-22T09:17:35.606Z,78.20
2019-03-22T09:20:04.927Z,78.20
2019-03-22T09:22:33.416Z,78.90
2019-03-22T09:25:02.039Z,79.10
2019-03-22T09:27:30.378Z,78.80
2019-03-22T09:29:58.877Z,78.80
2019-03-22T09:32:27.205Z,78.40
2019-03-22T09:34:55.647Z,79.30
2019-03-22T09:37:24.184Z,80.60
2019-03-22T09:39:52.673Z,80.80
2019-03-22T09:42:21.247Z,81.30
2019-03-22T09:44:49.846Z,80.90
2019-03-22T09:47:18.081Z,80.50
2019-03-22T09:49:46.496Z,80.40
2019-03-22T09:52:15.075Z,80.70
2019-03-22T09:54:43.383Z,79.60
2019-03-22T09:57:11.769Z,78.50
2019-03-22T09:59:39.968Z,77.60
2019-03-22T10:02:08.435Z,76.90
2019-03-22T10:04:37.023Z,76.80
2019-03-22T10:07:06.791Z,76.90
2019-03-22T10:09:35.117Z,76.50
2019-03-22T10:12:04.243Z,76.00
2019-03-22T10:14:32.609Z,74.10
2019-03-22T10:17:00.980Z,72.30
2019-03-22T10:19:29.566Z,69.30
2019-03-22T10:21:58.019Z,67.90
2019-03-22T10:24:26.425Z,66.90
2019-03-22T10:26:54.981Z,66.60
2019-03-22T10:29:23.382Z,65.90
2019-03-22T10:31:53.352Z,65.90
2019-03-22T10:34:21.607Z,63.80
2019-03-22T10:36:50.332Z,62.30
2019-03-22T10:39:18.660Z,62.90
2019-03-22T10:41:46.988Z,64.00
2019-03-22T10:44:15.297Z,64.10
2019-03-22T10:46:43.573Z,64.20
2019-03-22T10:49:12.001Z,64.50
2019-03-22T10:51:40.260Z,64.70
2019-03-22T10:54:08.907Z,64.50
2019-03-22T10:56:37.185Z,64.10
2019-03-22T10:59:05.913Z,63.90
2019-03-22T11:01:46.856Z,62.00
2019-03-22T11:06:33.801Z,60.00
2019-03-22T11:09:05.662Z,59.70
2019-03-22T11:11:34.267Z,58.80
2019-03-22T11:14:02.563Z,57.60
2019-03-22T11:16:30.973Z,54.80
2019-03-22T11:18:59.241Z,48.80
2019-03-22T11:21:27.718Z,44.30
2019-03-22T11:23:56.078Z,39.70
2019-03-22T11:26:24.380Z,38.60
2019-03-22T11:28:52.900Z,39.50
2019-03-22T11:31:28.326Z,40.90
2019-03-22T11:33:52.151Z,42.90
2019-03-22T11:36:20.666Z,44.80
2019-03-22T11:38:49.081Z,46.40
2019-03-22T11:41:17.624Z,47.70
2019-03-22T11:43:46.166Z,50.20
2019-03-22T11:46:14.640Z,51.60
2019-03-22T11:48:42.993Z,53.70
2019-03-22T11:51:11.543Z,55.60
2019-03-22T11:53:39.825Z,57.50
2019-03-22T11:56:09.477Z,59.30
2019-03-22T11:58:38.947Z,61.00
2019-03-22T12:01:07.381Z,62.50
2019-03-22T12:03:35.762Z,63.90
2019-03-22T12:06:04.798Z,65.30
2019-03-22T12:08:33.165Z,66.40
2019-03-22T12:11:01.404Z,67.40
2019-03-22T12:13:29.661Z,68.40
2019-03-22T12:15:58.597Z,68.70
2019-03-22T12:18:27.618Z,69.70
2019-03-22T12:20:56.645Z,70.00
2019-03-22T12:23:25.127Z,70.70
2019-03-22T12:25:54.290Z,69.90
2019-03-22T12:28:22.637Z,70.00
2019-03-22T12:30:51.114Z,70.20
2019-03-22T12:33:20.090Z,69.80
2019-03-22T12:35:48.281Z,69.20
2019-03-22T12:38:16.661Z,68.00
2019-03-22T12:40:44.907Z,67.30
2019-03-22T12:43:13.176Z,67.70
2019-03-22T12:45:41.538Z,68.20
2019-03-22T12:48:09.835Z,69.00
2019-03-22T12:50:38.107Z,69.50
2019-03-22T12:53:06.698Z,70.20
2019-03-22T12:55:35.041Z,70.50
2019-03-22T12:58:04.380Z,70.80
2019-03-22T13:00:32.645Z,71.40
2019-03-22T13:03:01.001Z,72.20
2019-03-22T13:05:29.546Z,73.00
2019-03-22T13:07:57.998Z,73.70
2019-03-22T13:10:26.561Z,74.20
2019-03-22T13:12:55.386Z,74.60
2019-03-22T13:15:23.884Z,75.00
2019-03-22T13:17:52.358Z,75.60
2019-03-22T13:20:20.941Z,76.20
2019-03-22T13:22:50.147Z,77.40
2019-03-22T13:25:21.125Z,77.70
2019-03-22T13:27:49.089Z,78.30
2019-03-22T13:30:34.938Z,78.90
2019-03-22T13:33:03.691Z,79.20
2019-03-22T13:35:31.950Z,80.00
2019-03-22T13:38:01.291Z,80.00
2019-03-22T13:40:29.692Z,80.50
2019-03-22T13:42:58.044Z,81.30
2019-03-22T13:45:26.564Z,81.20
2019-03-22T13:47:54.701Z,81.40
2019-03-22T13:50:23.045Z,81.70
2019-03-22T13:52:51.313Z,82.00
2019-03-22T13:55:19.451Z,82.30
2019-03-22T13:57:47.710Z,82.70
2019-03-22T14:00:16.393Z,83.70
2019-03-22T14:02:44.651Z,83.80
2019-03-22T14:05:12.942Z,84.00
2019-03-22T14:07:41.527Z,84.20
2019-03-22T14:10:17.526Z,84.70
2019-03-22T14:12:45.697Z,85.00
2019-03-22T14:15:14.088Z,85.30
2019-03-22T14:17:42.375Z,85.50
2019-03-22T14:20:11.695Z,85.70
2019-03-22T14:22:41.111Z,86.10
2019-03-22T14:25:09.562Z,86.20
2019-03-22T14:27:38.075Z,86.70
2019-03-22T14:30:06.924Z,86.30
2019-03-22T14:32:35.377Z,86.20
2019-03-22T14:35:05.733Z,86.20
2019-03-22T14:37:33.981Z,86.20
2019-03-22T14:40:02.236Z,86.40
2019-03-22T14:42:30.846Z,86.80
2019-03-22T14:44:59.238Z,87.20
2019-03-22T14:47:27.705Z,87.40
2019-03-22T14:49:55.840Z,87.50
2019-03-22T14:52:25.151Z,87.90
2019-03-22T14:54:53.523Z,88.20
2019-03-22T14:57:21.848Z,88.50
2019-03-22T14:59:58.548Z,88.90
2019-03-22T15:02:20.210Z,89.00
2019-03-22T15:04:48.967Z,89.30
2019-03-22T15:07:20.094Z,89.60
2019-03-22T15:09:47.504Z,90.00
2019-03-22T15:12:15.678Z,90.10
2019-03-22T15:14:51.909Z,90.10
2019-03-22T15:17:29.401Z,90.10
2019-03-22T15:20:16.101Z,90.10
2019-03-22T15:23:03.961Z,90.30
2019-03-22T15:25:53.308Z,90.40
2019-03-22T15:28:40.366Z,90.50
2019-03-22T15:31:27.344Z,90.60
2019-03-22T15:34:31.202Z,90.70
2019-03-22T15:37:18.351Z,90.90
2019-03-22T15:40:15.547Z,91.00
2019-03-22T15:42:45.751Z,91.20
2019-03-22T15:45:14.691Z,91.30
2019-03-22T15:47:43.179Z,91.50
2019-03-22T15:50:14.681Z,91.50
2019-03-22T15:52:42.975Z,91.80
2019-03-22T15:55:11.567Z,92.00
2019-03-22T15:57:39.971Z,92.10
2019-03-22T16:00:12.308Z,92.10
2019-03-22T16:02:43.593Z,92.10
2019-03-22T16:05:13.170Z,92.20
2019-03-22T16:07:42.301Z,92.20
2019-03-22T16:10:11.645Z,92.30
2019-03-22T16:12:43.824Z,92.30
2019-03-22T16:15:13.091Z,92.40
2019-03-22T16:17:46.029Z,92.50
2019-03-22T16:20:15.586Z,92.50
2019-03-22T16:22:44.131Z,92.90
2019-03-22T16:25:13.405Z,92.60
2019-03-22T16:27:42.645Z,92.60
2019-03-22T16:30:11.654Z,92.60
2019-03-22T16:32:42.085Z,92.70
2019-03-22T16:35:11.247Z,92.90
2019-03-22T16:37:39.478Z,92.80
2019-03-22T16:40:09.411Z,92.90
2019-03-22T16:42:38.534Z,93.00
2019-03-22T16:45:08.800Z,93.00
2019-03-22T16:47:37.171Z,93.00
2019-03-22T16:50:22.070Z,92.90
2019-03-22T16:52:50.340Z,92.90
2019-03-22T16:55:18.851Z,92.90
2019-03-22T16:58:24.591Z,93.00
2019-03-22T17:00:52.957Z,93.00
2019-03-22T17:03:21.442Z,93.10
2019-03-22T17:05:49.800Z,93.20
2019-03-22T17:08:18.129Z,93.20
2019-03-22T17:10:46.648Z,93.20
2019-03-22T17:13:15.439Z,93.30
2019-03-22T17:15:43.644Z,93.30
2019-03-22T17:18:12.103Z,93.40
2019-03-22T17:20:40.529Z,93.50
2019-03-22T17:23:08.817Z,93.50
2019-03-22T17:25:37.362Z,93.40
2019-03-22T17:28:05.650Z,93.40
2019-03-22T17:30:34.198Z,93.40
2019-03-22T17:33:02.759Z,93.40
2019-03-22T17:35:31.037Z,93.40
2019-03-22T17:37:59.202Z,93.40
2019-03-22T17:40:27.484Z,93.40
2019-03-22T17:42:55.843Z,93.50
2019-03-22T17:45:24.001Z,93.60
2019-03-22T17:47:53.071Z,93.60
2019-03-22T17:50:25.385Z,93.70
2019-03-22T17:52:53.838Z,93.70
2019-03-22T17:55:23.211Z,93.90
2019-03-22T17:57:51.441Z,94.00
2019-03-22T18:00:23.078Z,94.00
2019-03-22T18:02:52.287Z,94.00
2019-03-22T18:05:22.537Z,94.10
2019-03-22T18:07:51.225Z,94.20
2019-03-22T18:10:20.089Z,94.10
2019-03-22T18:12:48.526Z,94.20
2019-03-22T18:15:17.186Z,94.30
2019-03-22T18:17:45.687Z,94.30
2019-03-22T18:20:14.612Z,94.30
2019-03-22T18:22:45.910Z,94.30
2019-03-22T18:25:15.774Z,94.30
2019-03-22T18:27:44.589Z,94.40
2019-03-22T18:30:14.098Z,94.40
2019-03-22T18:32:42.782Z,94.50
2019-03-22T18:35:14.809Z,94.40
2019-03-22T18:37:43.430Z,94.50
2019-03-22T18:40:12.388Z,94.50
2019-03-22T18:42:43.551Z,94.50
2019-03-22T18:45:15.084Z,94.50
2019-03-22T18:47:44.145Z,94.50
2019-03-22T18:50:12.918Z,94.50
2019-03-22T18:52:42.482Z,94.50
2019-03-22T18:55:11.118Z,94.50
2019-03-22T18:57:40.431Z,94.50
2019-03-22T19:00:09.222Z,94.60
2019-03-22T19:02:38.722Z,94.60
2019-03-22T19:05:08.375Z,94.60
2019-03-22T19:07:36.812Z,94.60
2019-03-22T19:10:10.187Z,94.80
2019-03-22T19:12:41.611Z,94.80
2019-03-22T19:15:10.785Z,94.90
2019-03-22T19:17:39.191Z,94.90
2019-03-22T19:20:08.635Z,94.90
2019-03-22T19:22:38.064Z,95.00
2019-03-22T19:25:06.966Z,95.10
2019-03-22T19:27:35.481Z,95.10
2019-03-22T19:30:06.468Z,95.10
2019-03-22T19:32:35.281Z,95.10
2019-03-22T19:35:04.992Z,95.20
2019-03-22T19:37:44.702Z,95.20
2019-03-22T19:40:11.465Z,95.20
2019-03-22T19:42:40.734Z,95.20
2019-03-22T19:45:09.898Z,95.30
2019-03-22T19:47:39.061Z,95.40
2019-03-22T19:50:07.763Z,95.40
2019-03-22T19:52:37.060Z,95.50
2019-03-22T19:55:06.980Z,95.70
2019-03-22T19:57:35.912Z,95.80
2019-03-22T20:00:06.170Z,95.70
2019-03-22T20:02:35.888Z,95.80
2019-03-22T20:05:05.631Z,95.90
2019-03-22T20:07:34.193Z,95.90
2019-03-22T20:10:02.616Z,96.00
2019-03-22T20:12:31.544Z,96.00
2019-03-22T20:14:59.948Z,96.50
2019-03-22T20:17:28.205Z,96.20
2019-03-22T20:19:56.639Z,96.20
2019-03-22T20:22:25.802Z,96.30
2019-03-22T20:24:54.183Z,96.20
2019-03-22T20:27:22.972Z,96.20
2019-03-22T20:29:51.385Z,96.20
2019-03-22T20:32:20.486Z,96.20
2019-03-22T20:34:48.590Z,96.30
2019-03-22T20:37:16.912Z,96.30
2019-03-22T20:39:45.577Z,96.40
2019-03-22T20:42:14.021Z,96.60
2019-03-22T20:44:42.405Z,96.70
2019-03-22T20:47:10.694Z,96.70
2019-03-22T20:49:38.996Z,96.80
2019-03-22T20:52:07.216Z,96.90
2019-03-22T20:54:35.502Z,96.90
2019-03-22T20:57:04.843Z,96.80
2019-03-22T20:59:33.301Z,96.90
2019-03-22T21:02:01.676Z,96.80
2019-03-22T21:04:29.855Z,96.80
2019-03-22T21:06:59.828Z,96.90
2019-03-22T21:09:29.148Z,97.00
2019-03-22T21:11:57.383Z,97.20
2019-03-22T21:14:26.265Z,97.20
2019-03-22T21:16:54.476Z,97.20
2019-03-22T21:19:22.805Z,97.20
2019-03-22T21:21:51.955Z,97.20
2019-03-22T21:24:20.331Z,97.30
2019-03-22T21:26:48.831Z,97.40
2019-03-22T21:29:17.145Z,97.40
2019-03-22T21:31:45.449Z,97.50
2019-03-22T21:34:13.760Z,97.70
2019-03-22T21:36:42.167Z,97.60
2019-03-22T21:39:10.484Z,97.60
2019-03-22T21:41:39.303Z,97.60
2019-03-22T21:44:07.888Z,97.60
2019-03-22T21:46:36.131Z,97.60
2019-03-22T21:49:04.890Z,97.70
2019-03-22T21:51:33.085Z,97.70
2019-03-22T21:54:01.473Z,97.70
2019-03-22T21:56:29.890Z,97.70
2019-03-22T21:58:58.318Z,97.80
2019-03-22T22:01:26.902Z,97.90
2019-03-22T22:03:55.113Z,98.00
2019-03-22T22:06:23.424Z,98.00
2019-03-22T22:08:51.600Z,98.00
2019-03-22T22:11:19.979Z,98.10
2019-03-22T22:13:48.393Z,98.30
2019-03-22T22:16:16.564Z,98.20
2019-03-22T22:18:45.356Z,98.30
2019-03-22T22:21:14.549Z,98.40
2019-03-22T22:23:42.837Z,98.50
2019-03-22T22:26:11.932Z,98.70
2019-03-22T22:28:40.369Z,98.70
2019-03-22T22:31:08.632Z,98.60
2019-03-22T22:33:37.844Z,98.80
2019-03-22T22:36:06.946Z,98.80
2019-03-22T22:38:36.196Z,98.90
2019-03-22T22:41:05.388Z,98.90
2019-03-22T22:43:34.004Z,98.90
2019-03-22T22:46:02.165Z,99.10
2019-03-22T22:48:30.446Z,99.50
2019-03-22T22:50:58.616Z,99.20
2019-03-22T22:53:26.877Z,99.40
2019-03-22T22:55:55.122Z,99.30
2019-03-22T22:58:23.524Z,99.50
2019-03-22T23:00:51.768Z,99.60
2019-03-22T23:03:22.073Z,99.60
2019-03-22T23:05:50.622Z,99.60
2019-03-22T23:08:19.122Z,99.70
2019-03-22T23:10:47.610Z,99.80
2019-03-22T23:13:15.877Z,99.90
2019-03-22T23:15:44.030Z,99.90
2019-03-22T23:18:12.401Z,99.90
2019-03-22T23:20:41.799Z,99.90
2019-03-22T23:23:09.939Z,99.90
2019-03-22T23:25:38.155Z,99.90
2019-03-22T23:28:06.387Z,99.90
2019-03-22T23:30:34.803Z,99.90
2019-03-22T23:33:03.185Z,99.90
2019-03-22T23:35:31.836Z,99.90
2019-03-22T23:38:02.877Z,99.90
2019-03-22T23:40:31.369Z,99.90
2019-03-22T23:42:59.667Z,99.90
2019-03-22T23:45:27.987Z,99.90
2019-03-22T23:47:56.147Z,99.90
2019-03-22T23:50:24.425Z,99.90
2019-03-22T23:52:52.819Z,99.90
2019-03-22T23:55:21.182Z,99.90
2019-03-22T23:57:49.328Z,99.90
